Time;durP1;ratioP1;P1;durP2;ratioP2;P2;SDS_P1;SDS_P2;PMS_P1;PMS_P2;Temp;Humidity;BMP_temperature;BMP_pressure;BME280_temperature;BME280_humidity;BME280_pressure;Samples;Min_cycle;Max_cycle;Signal;HPM_P1;HPM_P2
2022/03/31 00:03:22;;;;;;;;;;;;;;;22.26;29.97;93828.63;10487499;28;2174;-72
2022/03/31 00:08:22;;;;;;;;;;;;;;;22.26;29.96;93830.50;10477008;28;1799;-72
2022/03/31 00:13:23;;;;;;;;;;;;;;;22.24;30.24;93824.78;10472185;28;1837;-70
2022/03/31 00:18:24;;;;;;;;;;;;;;;22.23;29.97;93825.88;10428307;28;2420;-72
2022/03/31 00:34:41;;;;;;;;;;;;;;;22.27;30.05;93803.03;10481990;28;1810;-72
2022/03/31 00:39:42;;;;;;;;;;;;;;;22.25;30.13;93807.84;10450869;28;1976;-71
2022/03/31 00:44:43;;;;;;;;;;;;;;;22.28;30.41;93802.69;10473248;28;1982;-70
2022/03/31 00:49:43;;;;;;;;;;;;;;;22.23;30.43;93795.00;10488719;28;1917;-69
2022/03/31 00:54:44;;;;;;;;;;;;;;;22.28;30.54;93797.41;10479073;28;1868;-72
2022/03/31 00:59:45;;;;;;;;;;;;;;;22.34;30.43;93795.34;10466982;28;1910;-71
2022/03/31 01:04:45;;;;;;;;;;;;;;;22.33;30.38;93791.91;10460326;28;2022;-70
2022/03/31 01:09:45;;;;;;;;;;;;;;;22.31;30.23;93780.13;10449427;28;1890;-71
2022/03/31 01:14:46;;;;;;;;;;;;;;;22.30;30.33;93763.53;10456218;28;1847;-69
2022/03/31 01:19:46;;;;;;;;;;;;;;;22.29;30.31;93758.59;10446070;28;2373;-71
2022/03/31 01:24:47;;;;;;;;;;;;;;;22.29;30.31;93750.66;10450892;28;2020;-70
2022/03/31 01:29:47;;;;;;;;;;;;;;;22.27;30.27;93748.38;10472611;28;1849;-70
2022/03/31 01:34:48;;;;;;;;;;;;;;;22.26;30.29;93743.41;10455755;28;2026;-68
2022/03/31 01:39:49;;;;;;;;;;;;;;;22.28;30.07;93741.97;10456951;28;2398;-71
2022/03/31 01:44:49;;;;;;;;;;;;;;;22.28;30.21;93743.84;10460806;28;1993;-70
2022/03/31 01:49:50;;;;;;;;;;;;;;;22.20;30.19;93724.38;10476753;28;1888;-72
2022/03/31 01:54:50;;;;;;;;;;;;;;;22.22;30.25;93722.19;10490909;28;1884;-71
2022/03/31 01:59:51;;;;;;;;;;;;;;;22.20;30.12;93715.69;10496032;28;1935;-73
2022/03/31 02:04:51;;;;;;;;;;;;;;;22.18;30.17;93709.97;10479380;28;1924;-71
2022/03/31 02:09:51;;;;;;;;;;;;;;;22.16;30.22;93697.13;10492494;28;2407;-71
2022/03/31 02:14:52;;;;;;;;;;;;;;;22.15;29.91;93698.25;10480065;28;1903;-71
2022/03/31 02:19:52;;;;;;;;;;;;;;;22.15;30.05;93695.59;10472318;28;2090;-71
2022/03/31 02:24:52;;;;;;;;;;;;;;;22.16;29.80;93689.22;10498951;28;2138;-72
2022/03/31 02:29:53;;;;;;;;;;;;;;;22.15;29.91;93679.00;10467358;28;1986;-71
2022/03/31 02:34:53;;;;;;;;;;;;;;;22.14;30.02;93670.31;10481906;28;1983;-70
2022/03/31 02:39:54;;;;;;;;;;;;;;;22.19;29.59;93669.31;10492814;28;2059;-70
2022/03/31 02:44:54;;;;;;;;;;;;;;;22.21;30.23;93662.59;10474442;28;1869;-71
2022/03/31 02:49:55;;;;;;;;;;;;;;;22.27;30.24;93655.22;10465296;28;1830;-70
2022/03/31 03:00:15;;;;;;;;;;;;;;;22.23;30.01;93659.63;10473375;28;2011;-70
2022/03/31 03:05:16;;;;;;;;;;;;;;;22.29;29.97;93655.66;10470982;28;1974;-69
2022/03/31 03:10:16;;;;;;;;;;;;;;;22.24;29.85;93646.09;10447358;28;1927;-71
2022/03/31 03:15:16;;;;;;;;;;;;;;;22.22;30.02;93640.38;10460026;28;2417;-71
2022/03/31 03:20:17;;;;;;;;;;;;;;;22.23;30.19;93644.56;10457645;28;1938;-72
2022/03/31 03:25:18;;;;;;;;;;;;;;;22.18;30.03;93639.50;10477460;28;2084;-70
2022/03/31 03:30:19;;;;;;;;;;;;;;;22.13;30.17;93639.75;10457416;28;1916;-71
2022/03/31 03:35:19;;;;;;;;;;;;;;;22.13;30.20;93629.22;10457248;28;1946;-71
2022/03/31 03:40:19;;;;;;;;;;;;;;;22.13;30.06;93626.56;10479814;28;1914;-70
2022/03/31 03:45:21;;;;;;;;;;;;;;;22.11;29.92;93623.50;10493492;28;1979;-70
2022/03/31 03:50:21;;;;;;;;;;;;;;;22.13;29.70;93616.00;10466483;28;1966;-70
2022/03/31 03:55:23;;;;;;;;;;;;;;;22.15;29.69;93621.72;10474034;28;1914;-70
2022/03/31 04:00:23;;;;;;;;;;;;;;;22.13;29.43;93623.16;10467642;28;1967;-70
2022/03/31 04:05:24;;;;;;;;;;;;;;;22.14;29.77;93625.44;10474765;28;2031;-71
2022/03/31 04:10:25;;;;;;;;;;;;;;;22.17;29.79;93622.16;10484346;28;1940;-71
2022/03/31 04:15:26;;;;;;;;;;;;;;;22.17;29.51;93618.75;10470164;28;1955;-71
2022/03/31 04:20:26;;;;;;;;;;;;;;;22.18;29.33;93621.03;10470571;28;1973;-71
2022/03/31 04:25:28;;;;;;;;;;;;;;;22.22;29.58;93613.22;10475255;28;1970;-68
2022/03/31 04:30:29;;;;;;;;;;;;;;;22.23;29.52;93626.09;10455809;28;1964;-72
2022/03/31 04:35:29;;;;;;;;;;;;;;;22.16;29.63;93617.97;10451768;28;1916;-71
2022/03/31 04:40:30;;;;;;;;;;;;;;;22.23;29.84;93617.41;10484480;28;1962;-70
2022/03/31 04:45:31;;;;;;;;;;;;;;;22.23;29.39;93618.19;10468691;28;1876;-71
2022/03/31 04:50:32;;;;;;;;;;;;;;;22.19;29.19;93608.63;10475652;28;2006;-71
2022/03/31 04:55:33;;;;;;;;;;;;;;;22.25;29.69;93613.34;10487333;28;1977;-70
2022/03/31 05:00:33;;;;;;;;;;;;;;;22.18;29.40;93605.22;10480898;28;1910;-71
2022/03/31 05:05:33;;;;;;;;;;;;;;;22.18;29.52;93605.22;10474555;28;1935;-71
2022/03/31 05:10:34;;;;;;;;;;;;;;;22.21;29.81;93604.56;10466963;28;1924;-72
2022/03/31 05:15:34;;;;;;;;;;;;;;;22.22;29.63;93607.94;10484920;28;1999;-72
2022/03/31 05:20:34;;;;;;;;;;;;;;;22.24;29.62;93603.09;10478835;28;2002;-73
2022/03/31 05:25:35;;;;;;;;;;;;;;;22.22;29.31;93605.28;10486560;28;1853;-72
2022/03/31 05:30:35;;;;;;;;;;;;;;;22.23;29.26;93602.34;10490545;28;2118;-71
2022/03/31 05:35:36;;;;;;;;;;;;;;;22.22;29.12;93597.38;10480043;28;1998;-74
2022/03/31 05:40:36;;;;;;;;;;;;;;;22.22;29.44;93590.25;10458697;28;1973;-73
2022/03/31 05:45:36;;;;;;;;;;;;;;;22.21;29.27;93595.84;10465570;28;1938;-72
2022/03/31 05:50:37;;;;;;;;;;;;;;;22.22;29.28;93584.97;10463851;28;1897;-72
2022/03/31 05:55:37;;;;;;;;;;;;;;;22.26;29.30;93585.81;10461274;28;1922;-69
2022/03/31 06:00:38;;;;;;;;;;;;;;;22.26;29.18;93583.19;10458330;28;1975;-73
2022/03/31 06:05:38;;;;;;;;;;;;;;;22.26;29.47;93585.81;10481807;28;1987;-72
2022/03/31 06:10:38;;;;;;;;;;;;;;;22.29;29.48;93595.72;10471527;28;1951;-70
2022/03/31 06:15:39;;;;;;;;;;;;;;;22.28;29.40;93602.09;10496934;28;2013;-70
2022/03/31 06:20:40;;;;;;;;;;;;;;;22.27;29.29;93590.00;10471369;28;1981;-71
2022/03/31 06:25:44;;;;;;;;;;;;;;;22.27;29.08;93589.25;10483903;28;1983;-72
2022/03/31 06:30:47;;;;;;;;;;;;;;;22.26;29.25;93593.75;10493118;28;2194;-70
2022/03/31 06:35:49;;;;;;;;;;;;;;;22.25;29.04;93594.84;10460859;28;2031;-72
2022/03/31 06:41:10;;;;;;;;;;;;;;;22.25;29.27;93589.59;10458420;28;2293;-69
2022/03/31 06:46:11;;;;;;;;;;;;;;;22.22;29.19;93590.25;10494160;28;1927;-71
2022/03/31 06:51:13;;;;;;;;;;;;;;;22.22;29.11;93584.19;10471303;28;2008;-70
2022/03/31 06:56:16;;;;;;;;;;;;;;;22.23;29.25;93575.97;10461452;28;2034;-72
2022/03/31 07:01:16;;;;;;;;;;;;;;;22.22;29.42;93571.75;10455604;28;2101;-70
2022/03/31 07:06:17;;;;;;;;;;;;;;;22.23;29.41;93567.25;10475193;28;1877;-70
2022/03/31 07:11:18;;;;;;;;;;;;;;;22.21;29.44;93566.84;10472957;28;2000;-71
2022/03/31 07:16:18;;;;;;;;;;;;;;;22.21;29.45;93551.00;10474344;28;2003;-71
2022/03/31 07:21:18;;;;;;;;;;;;;;;22.21;29.54;93557.06;10474356;28;1948;-71
2022/03/31 07:26:19;;;;;;;;;;;;;;;22.23;29.11;93560.13;10480004;28;1951;-71
2022/03/31 07:31:21;;;;;;;;;;;;;;;22.25;29.13;93563.19;10487651;28;1946;-70
2022/03/31 07:36:22;;;;;;;;;;;;;;;22.26;28.83;93564.72;10490110;28;1914;-71
2022/03/31 07:41:23;;;;;;;;;;;;;;;22.25;29.02;93568.47;10474515;28;1956;-70
2022/03/31 07:46:24;;;;;;;;;;;;;;;22.26;29.10;93569.22;10476771;28;2092;-71
2022/03/31 07:51:25;;;;;;;;;;;;;;;22.25;28.90;93563.19;10458870;28;1968;-71
2022/03/31 07:56:26;;;;;;;;;;;;;;;22.28;28.99;93556.44;10488460;28;1986;-72
2022/03/31 08:01:26;;;;;;;;;;;;;;;22.29;28.91;93564.06;10470122;28;1927;-71
2022/03/31 08:06:26;;;;;;;;;;;;;;;22.36;29.00;93558.19;10460799;28;1950;-69
2022/03/31 08:11:27;;;;;;;;;;;;;;;22.29;28.96;93545.56;10490335;28;1813;-71
2022/03/31 08:16:27;;;;;;;;;;;;;;;22.30;29.19;93541.81;10470931;28;1916;-72
2022/03/31 08:21:28;;;;;;;;;;;;;;;22.32;28.71;93536.97;10454026;28;2055;-72
2022/03/31 08:26:28;;;;;;;;;;;;;;;22.22;28.59;93542.75;10488315;28;1979;-72
2022/03/31 08:31:29;;;;;;;;;;;;;;;22.22;29.16;93542.75;10472203;28;1936;-72
2022/03/31 08:36:30;;;;;;;;;;;;;;;22.30;29.14;93544.47;10470339;28;2676;-72
2022/03/31 08:41:30;;;;;;;;;;;;;;;22.32;28.91;93541.47;10457652;28;1988;-72
2022/03/31 08:46:32;;;;;;;;;;;;;;;22.32;29.00;93541.47;10456641;28;2087;-70
2022/03/31 08:51:33;;;;;;;;;;;;;;;22.33;28.77;93540.38;10435878;28;1922;-72
2022/03/31 08:56:33;;;;;;;;;;;;;;;22.32;28.88;93541.47;10488003;28;1910;-72
2022/03/31 09:01:34;;;;;;;;;;;;;;;22.31;28.86;93534.69;10483691;28;1818;-72
2022/03/31 09:06:34;;;;;;;;;;;;;;;22.28;29.09;93541.38;10469423;28;1908;-72
2022/03/31 09:11:35;;;;;;;;;;;;;;;22.28;29.22;93536.13;10456979;28;2011;-72
2022/03/31 09:16:36;;;;;;;;;;;;;;;22.27;29.72;93526.69;10472821;28;2000;-70
2022/03/31 09:22:00;;;;;;;;;;;;;;;22.31;30.26;93535.44;10471586;28;1932;-72
2022/03/31 09:27:01;;;;;;;;;;;;;;;22.20;30.86;93531.75;10493140;28;1881;-71
2022/03/31 09:32:12;;;;;;;;;;;;;;;22.23;31.12;93532.97;10487247;28;1868;-72
2022/03/31 09:37:12;;;;;;;;;;;;;;;22.21;31.05;93525.38;10474929;28;2042;-70
2022/03/31 09:42:13;;;;;;;;;;;;;;;22.21;31.21;93532.53;10487109;28;2015;-69
2022/03/31 09:47:13;;;;;;;;;;;;;;;22.18;31.10;93526.03;10454540;28;1900;-71
2022/03/31 09:52:14;;;;;;;;;;;;;;;22.20;31.19;93526.47;10491850;28;1911;-71
2022/03/31 09:57:14;;;;;;;;;;;;;;;22.14;31.41;93529.69;10469920;28;1973;-70
2022/03/31 10:02:16;;;;;;;;;;;;;;;22.15;31.36;93534.66;10495139;28;1940;-70
2022/03/31 10:07:16;;;;;;;;;;;;;;;22.16;31.08;93532.75;10476561;28;1955;-71
2022/03/31 10:12:21;;;;;;;;;;;;;;;22.10;31.22;93534.88;10467756;28;1985;-72
2022/03/31 10:17:26;;;;;;;;;;;;;;;22.09;30.92;93522.78;10493126;28;2004;-71
2022/03/31 10:27:46;;;;;;;;;;;;;;;22.05;31.25;93516.63;10493881;28;1974;-71
2022/03/31 10:32:50;;;;;;;;;;;;;;;22.02;31.48;93509.41;10496413;28;1965;-72
2022/03/31 10:37:50;;;;;;;;;;;;;;;22.04;31.18;93509.84;10479171;28;2322;-72
2022/03/31 10:42:55;;;;;;;;;;;;;;;21.97;31.48;93504.34;10489850;28;1954;-72
2022/03/31 10:47:55;;;;;;;;;;;;;;;22.02;31.11;93496.22;10463729;28;2029;-71
2022/03/31 10:53:00;;;;;;;;;;;;;;;21.96;31.10;93489.66;10451747;28;1898;-71
2022/03/31 10:58:01;;;;;;;;;;;;;;;22.00;31.38;93481.81;10486362;28;2079;-70
2022/03/31 11:03:02;;;;;;;;;;;;;;;21.97;31.12;93475.34;10478350;28;1912;-72
2022/03/31 11:08:03;;;;;;;;;;;;;;;22.09;31.01;93472.63;10480899;28;1848;-73
2022/03/31 11:13:04;;;;;;;;;;;;;;;21.92;31.44;93475.59;10463818;28;1790;-72
2022/03/31 11:18:06;;;;;;;;;;;;;;;21.87;31.32;93462.63;10476050;28;1898;-69
2022/03/31 11:23:06;;;;;;;;;;;;;;;21.88;31.13;93466.81;10478767;28;1784;-71
2022/03/31 11:28:08;;;;;;;;;;;;;;;21.85;31.33;93459.56;10476923;28;1779;-69
2022/03/31 11:33:10;;;;;;;;;;;;;;;21.85;31.34;93464.84;10457945;28;1862;-71
2022/03/31 11:38:17;;;;;;;;;;;;;;;21.88;30.97;93451.75;10488827;28;1969;-70
2022/03/31 11:43:18;;;;;;;;;;;;;;;21.94;31.20;93447.00;10460264;28;1845;-68
2022/03/31 11:48:41;;;;;;;;;;;;;;;21.98;30.98;93450.50;10467881;28;2023;-71
2022/03/31 11:53:43;;;;;;;;;;;;;;;21.93;31.39;93440.19;10465319;28;1821;-70
2022/03/31 11:58:55;;;;;;;;;;;;;;;21.93;31.39;93434.16;10456855;28;1992;-71
2022/03/31 12:03:55;;;;;;;;;;;;;;;21.94;31.52;93438.31;10454829;28;1759;-70
2022/03/31 12:08:55;;;;;;;;;;;;;;;21.97;31.40;93430.50;10458979;28;1898;-69
2022/03/31 12:13:57;;;;;;;;;;;;;;;22.01;31.17;93430.59;10453271;28;1868;-70
2022/03/31 12:18:58;;;;;;;;;;;;;;;21.98;31.36;93424.13;10458881;28;1917;-68
2022/03/31 12:24:01;;;;;;;;;;;;;;;21.93;31.39;93424.34;10455299;28;1778;-70
2022/03/31 12:29:02;;;;;;;;;;;;;;;21.98;30.99;93421.50;10489085;28;1781;-68
2022/03/31 12:34:02;;;;;;;;;;;;;;;22.00;31.05;93416.63;10470745;28;1806;-69
2022/03/31 12:39:04;;;;;;;;;;;;;;;21.96;31.33;93412.38;10489320;28;1961;-71
2022/03/31 12:44:04;;;;;;;;;;;;;;;21.97;31.07;93412.03;10465799;28;1820;-70
2022/03/31 12:49:04;;;;;;;;;;;;;;;21.84;31.39;93405.28;10463244;28;1885;-70
2022/03/31 12:54:06;;;;;;;;;;;;;;;21.91;31.06;93402.09;10456447;28;1825;-70
2022/03/31 12:59:14;;;;;;;;;;;;;;;21.92;31.29;93388.56;10449519;28;1917;-70
2022/03/31 13:04:14;;;;;;;;;;;;;;;21.86;31.41;93392.53;10457713;28;1766;-69
2022/03/31 13:09:15;;;;;;;;;;;;;;;21.83;31.47;93387.94;10463008;28;1917;-69
2022/03/31 13:14:15;;;;;;;;;;;;;;;21.70;31.72;93383.81;10447893;28;1898;-70
2022/03/31 13:19:16;;;;;;;;;;;;;;;21.71;31.74;93375.53;10444137;28;2034;-69
2022/03/31 13:24:16;;;;;;;;;;;;;;;21.75;31.38;93378.28;10443993;28;1827;-70
2022/03/31 13:29:17;;;;;;;;;;;;;;;21.80;31.40;93383.31;10474719;28;1869;-70
2022/03/31 13:34:19;;;;;;;;;;;;;;;21.82;31.43;93381.13;10464952;28;1930;-68
2022/03/31 13:39:19;;;;;;;;;;;;;;;21.76;31.42;93372.66;10480070;28;1961;-69
2022/03/31 13:44:20;;;;;;;;;;;;;;;21.80;31.34;93365.59;10461415;28;1834;-69
2022/03/31 13:49:21;;;;;;;;;;;;;;;21.82;31.56;93370.59;10497160;28;1769;-68
2022/03/31 13:54:21;;;;;;;;;;;;;;;21.79;31.35;93361.44;10495950;28;1898;-69
2022/03/31 14:04:41;;;;;;;;;;;;;;;21.77;31.32;93357.59;10488687;28;1834;-70
2022/03/31 14:09:41;;;;;;;;;;;;;;;21.77;31.31;93358.38;10458750;28;1888;-70
2022/03/31 14:14:42;;;;;;;;;;;;;;;21.76;31.41;93356.09;10484148;28;1789;-69
2022/03/31 14:19:42;;;;;;;;;;;;;;;21.69;31.42;93356.66;10482507;28;1977;-69
2022/03/31 14:24:43;;;;;;;;;;;;;;;21.66;31.51;93352.06;10468545;28;1831;-70
2022/03/31 14:29:44;;;;;;;;;;;;;;;21.70;31.28;93342.34;10482973;28;1815;-69
2022/03/31 14:34:45;;;;;;;;;;;;;;;21.56;31.33;93335.94;10469466;28;1834;-70
2022/03/31 14:39:46;;;;;;;;;;;;;;;21.54;31.39;93324.97;10472204;28;1898;-70
2022/03/31 14:44:46;;;;;;;;;;;;;;;21.52;31.39;93327.19;10491248;28;1818;-71
2022/03/31 14:49:48;;;;;;;;;;;;;;;21.50;31.43;93329.38;10479821;28;1866;-70
2022/03/31 14:54:49;;;;;;;;;;;;;;;21.51;31.34;93317.75;10483697;28;1846;-71
2022/03/31 14:59:50;;;;;;;;;;;;;;;21.53;31.70;93323.47;10493355;28;1959;-70
2022/03/31 15:04:52;;;;;;;;;;;;;;;21.55;31.87;93321.25;10465144;28;1805;-71
2022/03/31 15:15:12;;;;;;;;;;;;;;;21.50;31.60;93314.34;10476571;28;1941;-72
2022/03/31 15:20:13;;;;;;;;;;;;;;;21.55;31.41;93308.06;10492776;28;1965;-71
2022/03/31 15:25:14;;;;;;;;;;;;;;;21.60;31.34;93308.59;10466805;28;1818;-71
2022/03/31 15:30:15;;;;;;;;;;;;;;;21.52;31.41;93311.38;10472158;28;1795;-71
2022/03/31 15:35:18;;;;;;;;;;;;;;;21.65;31.68;93310.22;10482690;28;1758;-70
2022/03/31 15:40:18;;;;;;;;;;;;;;;21.54;31.72;93309.94;10450497;28;1906;-70
2022/03/31 15:45:19;;;;;;;;;;;;;;;21.56;31.71;93320.13;10454858;28;1815;-70
2022/03/31 15:50:19;;;;;;;;;;;;;;;21.51;31.88;93317.75;10469152;28;1816;-71
2022/03/31 15:55:19;;;;;;;;;;;;;;;21.51;31.83;93312.50;10469630;28;1786;-70
2022/03/31 16:00:21;;;;;;;;;;;;;;;21.49;31.86;93314.69;10460548;28;1935;-70
2022/03/31 16:05:22;;;;;;;;;;;;;;;21.57;31.94;93319.03;10466651;28;1792;-71
2022/03/31 16:10:22;;;;;;;;;;;;;;;21.54;31.83;93323.13;10466467;28;1917;-70
2022/03/31 16:15:24;;;;;;;;;;;;;;;21.52;31.79;93325.31;10484546;28;1795;-71
2022/03/31 16:20:24;;;;;;;;;;;;;;;21.52;31.99;93327.19;10471956;28;1954;-69
2022/03/31 16:25:25;;;;;;;;;;;;;;;21.50;32.16;93321.47;10471704;28;1843;-69
2022/03/31 16:30:26;;;;;;;;;;;;;;;21.48;31.97;93331.59;10457151;28;1847;-70
2022/03/31 16:35:26;;;;;;;;;;;;;;;21.46;32.06;93320.63;10476127;28;1811;-70
2022/03/31 16:40:27;;;;;;;;;;;;;;;21.51;31.90;93328.31;10453432;28;1974;-71
2022/03/31 16:45:27;;;;;;;;;;;;;;;21.49;32.44;93330.50;10462114;28;1908;-71
2022/03/31 16:50:29;;;;;;;;;;;;;;;21.57;31.99;93329.59;10465668;28;1767;-71
2022/03/31 16:55:29;;;;;;;;;;;;;;;21.42;32.21;93327.66;10455847;28;1983;-71
2022/03/31 17:00:29;;;;;;;;;;;;;;;21.42;32.31;93336.34;10462411;28;1968;-69
2022/03/31 17:05:31;;;;;;;;;;;;;;;21.49;32.11;93331.28;10486660;28;1844;-70
2022/03/31 17:10:31;;;;;;;;;;;;;;;21.45;32.27;93335.66;10465610;28;1918;-70
2022/03/31 17:15:32;;;;;;;;;;;;;;;21.46;32.22;93339.06;10486483;28;1801;-71
2022/03/31 17:20:33;;;;;;;;;;;;;;;21.48;32.31;93339.50;10470345;28;1967;-70
2022/03/31 17:25:34;;;;;;;;;;;;;;;21.51;32.25;93347.53;10476573;28;1916;-71
2022/03/31 17:30:34;;;;;;;;;;;;;;;21.48;32.29;93344.78;10461908;28;1800;-71
2022/03/31 17:35:35;;;;;;;;;;;;;;;21.50;32.30;93347.84;10486076;28;2170;-71
2022/03/31 17:40:36;;;;;;;;;;;;;;;21.50;32.36;93348.63;10487020;28;1914;-69
2022/03/31 17:45:37;;;;;;;;;;;;;;;21.48;32.21;93344.78;10488684;28;2265;-71
2022/03/31 17:50:38;;;;;;;;;;;;;;;21.47;32.38;93349.31;10474091;28;1696;-70
2022/03/31 17:55:40;;;;;;;;;;;;;;;21.49;32.42;93356.88;10469719;28;1815;-69
2022/03/31 18:00:41;;;;;;;;;;;;;;;21.47;32.42;93357.22;10482665;23;2016;-45
2022/03/31 18:05:42;;;;;;;;;;;;;;;21.54;32.21;93356.59;10485982;28;1406;-39
2022/03/31 18:10:42;;;;;;;;;;;;;;;21.54;32.13;93365.28;10486170;28;1394;-42
2022/03/31 18:15:43;;;;;;;;;;;;;;;21.49;31.96;93368.19;10485223;28;1533;-39
2022/03/31 18:20:43;;;;;;;;;;;;;;;21.47;31.93;93364.34;10486877;28;1976;-39
2022/03/31 18:25:43;;;;;;;;;;;;;;;21.47;32.00;93370.38;10498112;28;1474;-41
2022/03/31 18:36:03;;;;;;;;;;;;;;;21.50;31.92;93382.09;10491449;28;1469;-39
2022/03/31 18:41:03;;;;;;;;;;;;;;;21.52;31.82;93382.53;10494876;28;1910;-43
2022/03/31 18:46:04;;;;;;;;;;;;;;;21.49;31.75;93388.50;10485606;22;3791;-52
2022/03/31 18:51:05;;;;;;;;;;;;;;;21.51;31.55;93394.19;10443631;28;1773;-53
2022/03/31 18:56:06;;;;;;;;;;;;;;;21.50;31.52;93396.06;10436176;28;1595;-56
2022/03/31 19:01:07;;;;;;;;;;;;;;;21.45;31.99;93403.44;10442170;28;1972;-54
2022/03/31 19:11:26;;;;;;;;;;;;;;;21.49;31.83;93405.09;10441567;28;1402;-55
2022/03/31 19:16:29;;;;;;;;;;;;;;;21.51;32.03;93404.75;10440104;28;1509;-53
2022/03/31 19:21:30;;;;;;;;;;;;;;;21.53;31.90;93413.09;10440218;28;1975;-51
2022/03/31 19:26:30;;;;;;;;;;;;;;;21.55;31.65;93409.00;10430238;28;1435;-56
2022/03/31 19:31:31;;;;;;;;;;;;;;;21.64;31.90;93414.91;10434305;28;1338;-54
2022/03/31 19:36:32;;;;;;;;;;;;;;;21.67;31.34;93408.19;10434567;28;1482;-52
2022/03/31 19:41:32;;;;;;;;;;;;;;;21.72;31.11;93418.50;10435362;28;1914;-55
2022/03/31 19:46:39;;;;;;;;;;;;;;;21.75;30.82;93415.97;10420933;28;1741;-53
2022/03/31 19:51:39;;;;;;;;;;;;;;;21.74;30.65;93421.56;10428142;28;1511;-55
2022/03/31 19:56:39;;;;;;;;;;;;;;;21.78;30.73;93417.16;10429046;28;2005;-56
2022/03/31 20:01:40;;;;;;;;;;;;;;;21.84;31.24;93407.94;10443230;28;1774;-50
2022/03/31 20:06:40;;;;;;;;;;;;;;;21.91;30.83;93420.53;10433514;28;1441;-53
2022/03/31 20:11:41;;;;;;;;;;;;;;;21.93;30.63;93419.09;10430236;28;1453;-51
2022/03/31 20:16:41;;;;;;;;;;;;;;;21.92;30.35;93411.50;10437281;28;1985;-52
2022/03/31 20:21:42;;;;;;;;;;;;;;;21.98;30.53;93410.16;10424052;28;1684;-52
2022/03/31 20:26:42;;;;;;;;;;;;;;;22.06;30.90;93412.66;10451111;28;1600;-54
2022/03/31 20:31:42;;;;;;;;;;;;;;;22.06;30.34;93403.97;10427765;28;1346;-54
2022/03/31 20:36:44;;;;;;;;;;;;;;;22.08;30.45;93407.03;10429492;28;1918;-50
2022/03/31 20:41:45;;;;;;;;;;;;;;;22.05;29.46;93400.56;10447255;28;1552;-54
2022/03/31 20:46:45;;;;;;;;;;;;;;;22.03;29.80;93400.13;10427632;28;1993;-52
2022/03/31 20:51:46;;;;;;;;;;;;;;;22.06;29.85;93409.25;10430762;28;1684;-51
2022/03/31 20:56:46;;;;;;;;;;;;;;;22.05;30.01;93400.56;10448930;28;2062;-55
2022/03/31 21:01:46;;;;;;;;;;;;;;;22.08;29.62;93399.88;10426193;28;1536;-52
2022/03/31 21:06:47;;;;;;;;;;;;;;;22.08;30.06;93394.59;10428163;28;1507;-54
2022/03/31 21:11:47;;;;;;;;;;;;;;;22.08;29.91;93399.13;10420330;28;1504;-53
2022/03/31 21:16:47;;;;;;;;;;;;;;;22.11;30.32;93393.94;10422765;28;1918;-56
2022/03/31 21:21:48;;;;;;;;;;;;;;;22.12;30.34;93399.97;10420984;28;1909;-54
2022/03/31 21:26:48;;;;;;;;;;;;;;;22.18;30.46;93394.09;10433059;28;1876;-53
2022/03/31 21:31:49;;;;;;;;;;;;;;;22.16;30.28;93400.81;10427258;28;2113;-54
2022/03/31 21:36:50;;;;;;;;;;;;;;;22.10;30.35;93408.22;10434765;28;1922;-56
2022/03/31 21:41:50;;;;;;;;;;;;;;;22.11;30.40;93401.84;10428626;28;1807;-56
2022/03/31 21:46:51;;;;;;;;;;;;;;;22.11;30.24;93404.50;10430703;28;1841;-54
2022/03/31 21:51:53;;;;;;;;;;;;;;;22.04;30.15;93408.81;10421173;28;1735;-54
2022/03/31 21:56:53;;;;;;;;;;;;;;;22.02;30.37;93401.25;10441469;28;2121;-54
2022/03/31 22:01:54;;;;;;;;;;;;;;;21.97;30.26;93412.03;10444535;28;2057;-52
2022/03/31 22:06:54;;;;;;;;;;;;;;;21.95;30.33;93410.84;10441846;28;1817;-53
2022/03/31 22:11:56;;;;;;;;;;;;;;;21.95;30.34;93413.50;10441409;28;1882;-51
2022/03/31 22:17:12;;;;;;;;;;;;;;;21.92;30.42;93411.50;10436905;28;1914;-54
2022/03/31 22:22:16;;;;;;;;;;;;;;;21.85;30.15;93412.09;10440187;28;1882;-55
2022/03/31 22:27:19;;;;;;;;;;;;;;;21.86;30.13;93403.09;10439582;28;1830;-55
2022/03/31 22:32:19;;;;;;;;;;;;;;;21.91;30.07;93400.19;10435059;28;2145;-54
2022/03/31 22:37:19;;;;;;;;;;;;;;;21.90;30.11;93408.44;10439124;28;1999;-55
2022/03/31 22:42:19;;;;;;;;;;;;;;;21.88;30.19;93404.25;10446741;28;1869;-54
2022/03/31 22:47:20;;;;;;;;;;;;;;;21.85;30.35;93404.19;10435995;28;1815;-53
2022/03/31 22:52:21;;;;;;;;;;;;;;;21.83;30.09;93403.75;10433374;28;1791;-53
2022/03/31 22:57:22;;;;;;;;;;;;;;;21.81;30.17;93396.19;10441173;28;1902;-52
2022/03/31 23:02:23;;;;;;;;;;;;;;;21.84;30.07;93400.03;10433283;28;1939;-53
2022/03/31 23:07:25;;;;;;;;;;;;;;;21.81;30.04;93393.53;10438451;28;1865;-55
2022/03/31 23:12:26;;;;;;;;;;;;;;;21.78;29.96;93390.78;10443902;28;1876;-52
2022/03/31 23:17:27;;;;;;;;;;;;;;;21.77;30.01;93397.94;10437841;28;1933;-56
2022/03/31 23:22:28;;;;;;;;;;;;;;;21.77;30.12;93392.66;10436696;28;1814;-55
2022/03/31 23:27:28;;;;;;;;;;;;;;;21.78;30.09;93396.81;10437811;28;2147;-54
2022/03/31 23:32:30;;;;;;;;;;;;;;;21.77;29.91;93390.03;10432486;28;1771;-56
2022/03/31 23:37:35;;;;;;;;;;;;;;;21.79;29.86;93387.81;10440849;28;1914;-55
2022/03/31 23:42:39;;;;;;;;;;;;;;;21.78;29.90;93386.25;10437653;28;1862;-50
2022/03/31 23:47:43;;;;;;;;;;;;;;;21.83;29.76;93382.66;10434121;28;1767;-56
2022/03/31 23:52:44;;;;;;;;;;;;;;;21.79;29.91;93376.50;10431930;28;1890;-53
2022/03/31 23:57:44;;;;;;;;;;;;;;;21.83;29.69;93380.00;10448652;28;2312;-56
